sensor_id;sensor_type;location;lat;lon;timestamp;pressure;altitude;pressure_sealevel;temperature;humidity
60307;BME280;46155;52.364;6.580;2023-02-17T04:00:40;101352.72;;;9.18;100.00
60307;BME280;46155;52.364;6.580;2023-02-17T04:03:05;101356.59;;;9.11;100.00
60307;BME280;46155;52.364;6.580;2023-02-17T04:05:30;101355.91;;;9.14;100.00
60307;BME280;46155;52.364;6.580;2023-02-17T04:07:56;101353.84;;;9.10;100.00
60307;BME280;46155;52.364;6.580;2023-02-17T04:10:21;101363.31;;;9.08;100.00
60307;BME280;46155;52.364;6.580;2023-02-17T04:12:46;101359.06;;;9.10;100.00
60307;BME280;46155;52.364;6.580;2023-02-17T04:15:11;101369.31;;;9.07;100.00
60307;BME280;46155;52.364;6.580;2023-02-17T04:17:37;101356.00;;;9.04;100.00
60307;BME280;46155;52.364;6.580;2023-02-17T04:20:04;101352.72;;;9.06;100.00
60307;BME280;46155;52.364;6.580;2023-02-17T04:22:30;101351.81;;;9.06;100.00
60307;BME280;46155;52.364;6.580;2023-02-17T04:24:55;101356.00;;;9.04;100.00
60307;BME280;46155;52.364;6.580;2023-02-17T04:27:20;101355.09;;;9.03;100.00
60307;BME280;46155;52.364;6.580;2023-02-17T04:29:46;101362.28;;;9.06;100.00
60307;BME280;46155;52.364;6.580;2023-02-17T04:32:11;101359.06;;;9.10;100.00
60307;BME280;46155;52.364;6.580;2023-02-17T04:34:36;101366.16;;;9.11;100.00
60307;BME280;46155;52.364;6.580;2023-02-17T04:37:02;101367.88;;;9.10;100.00
60307;BME280;46155;52.364;6.580;2023-02-17T04:39:27;101366.94;;;9.10;100.00
60307;BME280;46155;52.364;6.580;2023-02-17T04:41:52;101374.22;;;9.14;100.00
60307;BME280;46155;52.364;6.580;2023-02-17T04:44:18;101371.59;;;9.14;100.00
60307;BME280;46155;52.364;6.580;2023-02-17T04:46:43;101357.16;;;9.19;100.00
60307;BME280;46155;52.364;6.580;2023-02-17T04:49:08;101352.94;;;9.21;100.00
60307;BME280;46155;52.364;6.580;2023-02-17T04:51:33;101343.84;;;9.16;100.00
60307;BME280;46155;52.364;6.580;2023-02-17T04:53:59;101347.47;;;9.18;100.00
60307;BME280;46155;52.364;6.580;2023-02-17T04:56:24;101331.97;;;9.21;100.00
60307;BME280;46155;52.364;6.580;2023-02-17T04:58:49;101335.63;;;9.23;100.00
60307;BME280;46155;52.364;6.580;2023-02-17T05:01:15;101322.22;;;9.19;100.00
60307;BME280;46155;52.364;6.580;2023-02-17T05:03:40;101321.06;;;9.15;100.00
60307;BME280;46155;52.364;6.580;2023-02-17T05:06:06;101326.88;;;9.23;100.00
60307;BME280;46155;52.364;6.580;2023-02-17T05:08:31;101321.28;;;9.18;100.00
60307;BME280;46155;52.364;6.580;2023-02-17T05:10:57;101324.38;;;9.24;100.00
60307;BME280;46155;52.364;6.580;2023-02-17T05:13:22;101314.47;;;9.20;100.00
60307;BME280;46155;52.364;6.580;2023-02-17T05:15:47;101317.31;;;9.23;100.00
60307;BME280;46155;52.364;6.580;2023-02-17T05:18:13;101310.34;;;9.24;100.00
60307;BME280;46155;52.364;6.580;2023-02-17T05:20:39;101304.31;;;9.25;100.00
60307;BME280;46155;52.364;6.580;2023-02-17T05:23:05;101305.09;;;9.24;100.00
60307;BME280;46155;52.364;6.580;2023-02-17T05:25:30;101329.50;;;9.23;100.00
60307;BME280;46155;52.364;6.580;2023-02-17T05:27:56;101336.66;;;9.25;100.00
60307;BME280;46155;52.364;6.580;2023-02-17T05:30:22;101342.72;;;9.24;100.00
60307;BME280;46155;52.364;6.580;2023-02-17T05:32:48;101325.16;;;9.23;100.00
60307;BME280;46155;52.364;6.580;2023-02-17T05:35:13;101333.25;;;9.26;100.00
60307;BME280;46155;52.364;6.580;2023-02-17T05:37:38;101322.75;;;9.26;100.00
60307;BME280;46155;52.364;6.580;2023-02-17T05:40:04;101321.03;;;9.27;100.00
60307;BME280;46155;52.364;6.580;2023-02-17T05:42:30;101314.34;;;9.30;100.00
60307;BME280;46155;52.364;6.580;2023-02-17T05:44:55;101327.56;;;9.32;100.00
60307;BME280;46155;52.364;6.580;2023-02-17T05:47:21;101325.59;;;9.29;100.00
60307;BME280;46155;52.364;6.580;2023-02-17T05:49:47;101320.38;;;9.29;100.00
60307;BME280;46155;52.364;6.580;2023-02-17T05:52:12;101313.78;;;9.35;100.00
60307;BME280;46155;52.364;6.580;2023-02-17T05:54:37;101320.59;;;9.33;100.00
60307;BME280;46155;52.364;6.580;2023-02-17T05:57:03;101314.91;;;9.26;100.00
60307;BME280;46155;52.364;6.580;2023-02-17T05:59:28;101318.69;;;9.30;100.00
60307;BME280;46155;52.364;6.580;2023-02-17T06:01:53;101302.81;;;9.28;100.00
60307;BME280;46155;52.364;6.580;2023-02-17T06:04:19;101300.09;;;9.27;100.00
60307;BME280;46155;52.364;6.580;2023-02-17T06:06:44;101284.25;;;9.25;100.00
60307;BME280;46155;52.364;6.580;2023-02-17T06:09:09;101290.44;;;9.26;100.00
60307;BME280;46155;52.364;6.580;2023-02-17T06:11:35;101287.81;;;9.26;100.00
60307;BME280;46155;52.364;6.580;2023-02-17T06:14:00;101283.03;;;9.20;100.00
60307;BME280;46155;52.364;6.580;2023-02-17T06:16:25;101276.97;;;9.21;100.00
60307;BME280;46155;52.364;6.580;2023-02-17T06:18:51;101285.06;;;9.24;100.00
60307;BME280;46155;52.364;6.580;2023-02-17T06:21:16;101283.25;;;9.23;100.00
60307;BME280;46155;52.364;6.580;2023-02-17T06:23:42;101300.78;;;9.24;100.00
60307;BME280;46155;52.364;6.580;2023-02-17T06:26:07;101301.59;;;9.23;100.00
60307;BME280;46155;52.364;6.580;2023-02-17T06:28:32;101289.59;;;9.27;100.00
60307;BME280;46155;52.364;6.580;2023-02-17T06:30:58;101304.75;;;9.31;100.00
60307;BME280;46155;52.364;6.580;2023-02-17T06:33:23;101290.06;;;9.21;100.00
60307;BME280;46155;52.364;6.580;2023-02-17T06:35:49;101303.53;;;9.26;100.00
60307;BME280;46155;52.364;6.580;2023-02-17T06:38:15;101306.03;;;9.24;100.00
60307;BME280;46155;52.364;6.580;2023-02-17T06:40:41;101295.09;;;9.30;100.00
60307;BME280;46155;52.364;6.580;2023-02-17T06:43:06;101303.97;;;9.32;100.00
60307;BME280;46155;52.364;6.580;2023-02-17T06:45:32;101287.56;;;9.35;100.00
60307;BME280;46155;52.364;6.580;2023-02-17T06:47:57;101300.78;;;9.36;100.00
60307;BME280;46155;52.364;6.580;2023-02-17T06:50:22;101293.81;;;9.37;100.00
60307;BME280;46155;52.364;6.580;2023-02-17T06:52:48;101303.72;;;9.41;100.00
60307;BME280;46155;52.364;6.580;2023-02-17T06:55:13;101284.25;;;9.37;100.00
60307;BME280;46155;52.364;6.580;2023-02-17T06:57:38;101287.56;;;9.35;100.00
60307;BME280;46155;52.364;6.580;2023-02-17T07:00:04;101280.72;;;9.37;100.00
60307;BME280;46155;52.364;6.580;2023-02-17T07:02:30;101300.09;;;9.39;100.00
60307;BME280;46155;52.364;6.580;2023-02-17T07:04:55;101294.84;;;9.39;100.00
60307;BME280;46155;52.364;6.580;2023-02-17T07:07:20;101288.00;;;9.41;100.00
60307;BME280;46155;52.364;6.580;2023-02-17T07:09:46;101288.69;;;9.38;100.00
60307;BME280;46155;52.364;6.580;2023-02-17T07:12:11;101276.63;;;9.40;100.00
60307;BME280;46155;52.364;6.580;2023-02-17T07:14:36;101288.78;;;9.40;100.00
60307;BME280;46155;52.364;6.580;2023-02-17T07:17:02;101278.91;;;9.36;100.00
60307;BME280;46155;52.364;6.580;2023-02-17T07:19:27;101278.19;;;9.38;100.00
60307;BME280;46155;52.364;6.580;2023-02-17T07:21:52;101287.09;;;9.40;100.00
60307;BME280;46155;52.364;6.580;2023-02-17T07:24:18;101282.97;;;9.44;100.00
60307;BME280;46155;52.364;6.580;2023-02-17T07:26:43;101273.44;;;9.44;100.00
60307;BME280;46155;52.364;6.580;2023-02-17T07:29:09;101276.84;;;9.43;100.00
60307;BME280;46155;52.364;6.580;2023-02-17T07:31:34;101276.06;;;9.44;100.00
60307;BME280;46155;52.364;6.580;2023-02-17T07:34:01;101274.09;;;9.42;100.00
60307;BME280;46155;52.364;6.580;2023-02-17T07:36:27;101272.28;;;9.41;100.00
60307;BME280;46155;52.364;6.580;2023-02-17T07:38:52;101271.59;;;9.43;100.00
60307;BME280;46155;52.364;6.580;2023-02-17T07:41:20;101279.56;;;9.45;100.00
60307;BME280;46155;52.364;6.580;2023-02-17T07:43:47;101284.81;;;9.45;100.00
60307;BME280;46155;52.364;6.580;2023-02-17T07:46:12;101293.47;;;9.44;100.00
60307;BME280;46155;52.364;6.580;2023-02-17T07:48:38;101298.72;;;9.44;100.00
60307;BME280;46155;52.364;6.580;2023-02-17T07:51:05;101291.88;;;9.46;100.00
60307;BME280;46155;52.364;6.580;2023-02-17T07:53:31;101287.44;;;9.45;100.00
60307;BME280;46155;52.364;6.580;2023-02-17T07:55:56;101291.19;;;9.48;100.00
60307;BME280;46155;52.364;6.580;2023-02-17T07:58:22;101288.69;;;9.50;100.00
60307;BME280;46155;52.364;6.580;2023-02-17T08:00:47;101275.59;;;9.50;100.00
60307;BME280;46155;52.364;6.580;2023-02-17T08:03:12;101273.97;;;9.52;100.00
60307;BME280;46155;52.364;6.580;2023-02-17T08:05:39;101265.22;;;9.52;100.00
60307;BME280;46155;52.364;6.580;2023-02-17T08:08:06;101269.53;;;9.51;100.00
60307;BME280;46155;52.364;6.580;2023-02-17T08:10:49;101268.50;;;9.49;100.00
60307;BME280;46155;52.364;6.580;2023-02-17T08:13:50;101269.53;;;9.51;100.00
60307;BME280;46155;52.364;6.580;2023-02-17T08:16:15;101281.84;;;9.52;100.00
60307;BME280;46155;52.364;6.580;2023-02-17T08:18:41;101273.19;;;9.53;100.00
60307;BME280;46155;52.364;6.580;2023-02-17T08:21:06;101276.22;;;9.59;100.00
60307;BME280;46155;52.364;6.580;2023-02-17T08:23:31;101273.63;;;9.59;100.00
60307;BME280;46155;52.364;6.580;2023-02-17T08:25:57;101269.19;;;9.58;100.00
60307;BME280;46155;52.364;6.580;2023-02-17T08:28:23;101271.81;;;9.58;100.00
60307;BME280;46155;52.364;6.580;2023-02-17T08:30:49;101284.31;;;9.62;100.00
60307;BME280;46155;52.364;6.580;2023-02-17T08:33:14;101291.38;;;9.63;100.00
60307;BME280;46155;52.364;6.580;2023-02-17T08:35:43;101297.88;;;9.69;100.00
60307;BME280;46155;52.364;6.580;2023-02-17T08:38:08;101298.00;;;9.70;100.00
60307;BME280;46155;52.364;6.580;2023-02-17T08:40:33;101312.22;;;9.74;100.00
60307;BME280;46155;52.364;6.580;2023-02-17T08:42:59;101303.88;;;9.79;100.00
60307;BME280;46155;52.364;6.580;2023-02-17T08:45:24;101305.44;;;9.89;100.00
60307;BME280;46155;52.364;6.580;2023-02-17T08:47:50;101296.59;;;9.87;100.00
60307;BME280;46155;52.364;6.580;2023-02-17T08:50:17;101302.81;;;9.89;100.00
60307;BME280;46155;52.364;6.580;2023-02-17T08:52:45;101313.31;;;9.89;100.00
60307;BME280;46155;52.364;6.580;2023-02-17T08:55:10;101318.66;;;9.91;100.00
60307;BME280;46155;52.364;6.580;2023-02-17T08:57:36;101322.44;;;9.94;100.00
60307;BME280;46155;52.364;6.580;2023-02-17T09:00:04;101318.09;;;9.95;100.00
60307;BME280;46155;52.364;6.580;2023-02-17T09:02:30;101311.25;;;9.97;100.00
60307;BME280;46155;52.364;6.580;2023-02-17T09:04:55;101322.75;;;9.99;100.00
60307;BME280;46155;52.364;6.580;2023-02-17T09:07:21;101313.19;;;9.99;100.00
60307;BME280;46155;52.364;6.580;2023-02-17T09:09:46;101308.16;;;10.03;100.00
60307;BME280;46155;52.364;6.580;2023-02-17T09:12:11;101293.44;;;10.05;100.00
60307;BME280;46155;52.364;6.580;2023-02-17T09:14:36;101308.59;;;10.09;100.00
60307;BME280;46155;52.364;6.580;2023-02-17T09:17:02;101314.03;;;10.12;100.00
60307;BME280;46155;52.364;6.580;2023-02-17T09:19:28;101309.84;;;10.14;100.00
60307;BME280;46155;52.364;6.580;2023-02-17T09:21:54;101309.03;;;10.15;100.00
60307;BME280;46155;52.364;6.580;2023-02-17T09:24:20;101288.94;;;10.15;100.00
60307;BME280;46155;52.364;6.580;2023-02-17T09:26:45;101293.50;;;10.18;100.00
60307;BME280;46155;52.364;6.580;2023-02-17T09:29:10;101289.56;;;10.25;100.00
60307;BME280;46155;52.364;6.580;2023-02-17T09:31:36;101283.63;;;10.27;100.00
60307;BME280;46155;52.364;6.580;2023-02-17T09:34:02;101292.75;;;10.32;100.00
60307;BME280;46155;52.364;6.580;2023-02-17T09:36:30;101300.88;;;10.36;100.00
60307;BME280;46155;52.364;6.580;2023-02-17T09:38:56;101283.06;;;10.31;100.00
60307;BME280;46155;52.364;6.580;2023-02-17T09:41:25;101279.97;;;10.37;100.00
60307;BME280;46155;52.364;6.580;2023-02-17T09:43:52;101279.28;;;10.40;100.00
60307;BME280;46155;52.364;6.580;2023-02-17T09:46:34;101274.25;;;10.43;100.00
60307;BME280;46155;52.364;6.580;2023-02-17T09:49:14;101267.16;;;10.42;100.00
60307;BME280;46155;52.364;6.580;2023-02-17T09:56:52;101276.47;;;10.50;100.00
60307;BME280;46155;52.364;6.580;2023-02-17T09:59:31;101260.81;;;10.51;100.00
60307;BME280;46155;52.364;6.580;2023-02-17T10:01:59;101260.94;;;10.53;100.00
60307;BME280;46155;52.364;6.580;2023-02-17T10:04:31;101263.69;;;10.55;100.00
60307;BME280;46155;52.364;6.580;2023-02-17T10:07:01;101270.25;;;10.61;100.00
60307;BME280;46155;52.364;6.580;2023-02-17T10:09:34;101262.47;;;10.63;100.00
60307;BME280;46155;52.364;6.580;2023-02-17T10:12:11;101257.84;;;10.72;100.00
60307;BME280;46155;52.364;6.580;2023-02-17T10:14:45;101267.44;;;10.72;100.00
60307;BME280;46155;52.364;6.580;2023-02-17T10:20:05;101248.69;;;10.79;100.00
60307;BME280;46155;52.364;6.580;2023-02-17T10:22:32;101253.09;;;10.80;100.00
60307;BME280;46155;52.364;6.580;2023-02-17T10:24:59;101243.94;;;10.73;100.00
60307;BME280;46155;52.364;6.580;2023-02-17T10:27:36;101249.28;;;10.88;100.00
60307;BME280;46155;52.364;6.580;2023-02-17T10:34:04;101246.94;;;10.93;100.00
60307;BME280;46155;52.364;6.580;2023-02-17T10:39:12;101262.72;;;10.93;100.00
60307;BME280;46155;52.364;6.580;2023-02-17T10:41:40;101268.78;;;10.92;100.00
60307;BME280;46155;52.364;6.580;2023-02-17T10:44:17;101276.69;;;10.92;100.00
60307;BME280;46155;52.364;6.580;2023-02-17T10:46:44;101276.78;;;10.93;100.00
60307;BME280;46155;52.364;6.580;2023-02-17T10:49:27;101289.41;;;10.99;100.00
60307;BME280;46155;52.364;6.580;2023-02-17T10:51:53;101292.63;;;10.95;100.00
60307;BME280;46155;52.364;6.580;2023-02-17T10:54:37;101284.66;;;10.93;100.00
60307;BME280;46155;52.364;6.580;2023-02-17T10:57:09;101306.06;;;10.99;100.00
60307;BME280;46155;52.364;6.580;2023-02-17T10:59:42;101316.47;;;10.98;100.00
60307;BME280;46155;52.364;6.580;2023-02-17T11:02:41;101306.28;;;11.02;100.00
60307;BME280;46155;52.364;6.580;2023-02-17T11:05:07;101320.63;;;11.08;100.00
60307;BME280;46155;52.364;6.580;2023-02-17T11:07:40;101321.53;;;11.08;100.00
60307;BME280;46155;52.364;6.580;2023-02-17T11:12:45;101306.59;;;11.07;100.00
60307;BME280;46155;52.364;6.580;2023-02-17T11:15:35;101323.66;;;11.00;100.00
60307;BME280;46155;52.364;6.580;2023-02-17T11:18:09;101330.50;;;10.98;100.00
60307;BME280;46155;52.364;6.580;2023-02-17T11:20:36;101337.19;;;10.93;100.00
60307;BME280;46155;52.364;6.580;2023-02-17T11:25:34;101342.44;;;10.93;100.00
60307;BME280;46155;52.364;6.580;2023-02-17T11:28:05;101362.78;;;10.96;100.00
60307;BME280;46155;52.364;6.580;2023-02-17T11:30:33;101363.25;;;10.90;100.00
60307;BME280;46155;52.364;6.580;2023-02-17T11:33:10;101350.22;;;10.92;100.00
60307;BME280;46155;52.364;6.580;2023-02-17T11:38:47;101335.75;;;10.85;100.00
60307;BME280;46155;52.364;6.580;2023-02-17T11:43:19;101329.72;;;10.86;100.00
60307;BME280;46155;52.364;6.580;2023-02-17T11:45:48;101342.00;;;10.87;100.00
60307;BME280;46155;52.364;6.580;2023-02-17T11:54:02;101343.53;;;10.83;100.00
60307;BME280;46155;52.364;6.580;2023-02-17T11:56:38;101334.53;;;10.80;100.00
60307;BME280;46155;52.364;6.580;2023-02-17T11:59:22;101332.81;;;10.80;100.00
60307;BME280;46155;52.364;6.580;2023-02-17T12:05:03;101339.78;;;10.80;100.00
60307;BME280;46155;52.364;6.580;2023-02-17T12:07:38;101350.19;;;10.78;100.00
60307;BME280;46155;52.364;6.580;2023-02-17T12:10:26;101341.19;;;10.75;100.00
60307;BME280;46155;52.364;6.580;2023-02-17T12:15:53;101354.31;;;10.75;100.00
60307;BME280;46155;52.364;6.580;2023-02-17T12:26:42;101374.03;;;10.81;100.00
60307;BME280;46155;52.364;6.580;2023-02-17T12:31:56;101372.31;;;10.82;100.00
60307;BME280;46155;52.364;6.580;2023-02-17T12:34:29;101364.66;;;10.85;100.00
60307;BME280;46155;52.364;6.580;2023-02-17T12:36:56;101373.13;;;10.81;100.00
60307;BME280;46155;52.364;6.580;2023-02-17T12:39:46;101375.75;;;10.81;100.00
60307;BME280;46155;52.364;6.580;2023-02-17T12:42:19;101366.63;;;10.76;100.00
60307;BME280;46155;52.364;6.580;2023-02-17T12:44:54;101373.59;;;10.75;100.00
60307;BME280;46155;52.364;6.580;2023-02-17T12:47:36;101374.31;;;10.73;100.00
60307;BME280;46155;52.364;6.580;2023-02-17T12:50:29;101387.31;;;10.71;100.00
60307;BME280;46155;52.364;6.580;2023-02-17T12:52:53;101397.94;;;10.73;100.00
60307;BME280;46155;52.364;6.580;2023-02-17T12:55:25;101387.44;;;10.73;100.00
60307;BME280;46155;52.364;6.580;2023-02-17T12:58:01;101397.13;;;10.74;100.00
60307;BME280;46155;52.364;6.580;2023-02-17T13:00:37;101398.03;;;10.74;100.00
60307;BME280;46155;52.364;6.580;2023-02-17T13:03:04;101393.72;;;10.75;100.00
60307;BME280;46155;52.364;6.580;2023-02-17T13:05:50;101393.94;;;10.78;100.00
60307;BME280;46155;52.364;6.580;2023-02-17T13:08:27;101385.94;;;10.76;100.00
60307;BME280;46155;52.364;6.580;2023-02-17T13:11:26;101410.47;;;10.77;100.00
60307;BME280;46155;52.364;6.580;2023-02-17T13:13:52;101406.03;;;10.76;100.00
60307;BME280;46155;52.364;6.580;2023-02-17T13:16:18;101402.81;;;10.80;100.00
60307;BME280;46155;52.364;6.580;2023-02-17T13:18:49;101403.00;;;10.83;100.00
60307;BME280;46155;52.364;6.580;2023-02-17T13:24:03;101404.16;;;10.87;100.00
60307;BME280;46155;52.364;6.580;2023-02-17T13:26:42;101401.41;;;10.85;100.00
60307;BME280;46155;52.364;6.580;2023-02-17T13:29:18;101413.75;;;10.86;100.00
60307;BME280;46155;52.364;6.580;2023-02-17T13:31:56;101417.19;;;10.85;100.00
60307;BME280;46155;52.364;6.580;2023-02-17T13:34:36;101415.34;;;10.84;100.00
60307;BME280;46155;52.364;6.580;2023-02-17T13:39:57;101401.91;;;10.79;100.00
60307;BME280;46155;52.364;6.580;2023-02-17T13:45:00;101408.16;;;10.81;100.00
60307;BME280;46155;52.364;6.580;2023-02-17T13:47:35;101403.75;;;10.80;100.00
60307;BME280;46155;52.364;6.580;2023-02-17T13:50:02;101413.53;;;10.83;100.00
60307;BME280;46155;52.364;6.580;2023-02-17T13:52:29;101411.72;;;10.82;100.00
60307;BME280;46155;52.364;6.580;2023-02-17T13:55:01;101407.25;;;10.81;100.00
60307;BME280;46155;52.364;6.580;2023-02-17T13:57:28;101401.91;;;10.79;100.00
60307;BME280;46155;52.364;6.580;2023-02-17T14:02:50;101401.53;;;10.87;100.00
60307;BME280;46155;52.364;6.580;2023-02-17T14:07:47;101417.59;;;10.91;100.00
60307;BME280;46155;52.364;6.580;2023-02-17T14:10:22;101403.00;;;10.83;100.00
60307;BME280;46155;52.364;6.580;2023-02-17T14:12:49;101383.63;;;10.81;100.00
60307;BME280;46155;52.364;6.580;2023-02-17T14:15:17;101392.75;;;10.86;100.00
60307;BME280;46155;52.364;6.580;2023-02-17T14:17:43;101389.28;;;10.87;100.00
60307;BME280;46155;52.364;6.580;2023-02-17T14:20:27;101398.41;;;10.92;100.00
60307;BME280;46155;52.364;6.580;2023-02-17T14:25:28;101404.06;;;10.98;100.00
60307;BME280;46155;52.364;6.580;2023-02-17T14:27:54;101410.16;;;10.97;100.00
60307;BME280;46155;52.364;6.580;2023-02-17T14:30:35;101404.06;;;10.98;100.00
60307;BME280;46155;52.364;6.580;2023-02-17T14:36:11;101412.06;;;11.00;100.00
60307;BME280;46155;52.364;6.580;2023-02-17T14:38:40;101415.03;;;11.05;100.00
60307;BME280;46155;52.364;6.580;2023-02-17T14:41:07;101421.88;;;11.02;100.00
60307;BME280;46155;52.364;6.580;2023-02-17T14:43:36;101407.16;;;11.05;100.00
60307;BME280;46155;52.364;6.580;2023-02-17T14:46:02;101411.56;;;11.06;100.00
60307;BME280;46155;52.364;6.580;2023-02-17T14:48:27;101428.16;;;11.05;100.00
60307;BME280;46155;52.364;6.580;2023-02-17T14:50:52;101443.22;;;11.07;100.00
60307;BME280;46155;52.364;6.580;2023-02-17T14:53:33;101434.63;;;11.10;100.00
60307;BME280;46155;52.364;6.580;2023-02-17T14:56:21;101426.63;;;11.08;100.00
60307;BME280;46155;52.364;6.580;2023-02-17T14:58:47;101431.31;;;11.12;100.00
60307;BME280;46155;52.364;6.580;2023-02-17T15:01:15;101436.44;;;11.11;100.00
60307;BME280;46155;52.364;6.580;2023-02-17T15:03:40;101448.09;;;11.14;100.00
60307;BME280;46155;52.364;6.580;2023-02-17T15:06:21;101461.34;;;11.16;100.00
60307;BME280;46155;52.364;6.580;2023-02-17T15:08:47;101453.06;;;11.23;100.00
60307;BME280;46155;52.364;6.580;2023-02-17T15:11:20;101462.66;;;11.23;100.00
60307;BME280;46155;52.364;6.580;2023-02-17T15:13:48;101445.78;;;11.32;100.00
60307;BME280;46155;52.364;6.580;2023-02-17T15:16:14;101442.06;;;11.29;100.00
60307;BME280;46155;52.364;6.580;2023-02-17T15:18:41;101448.44;;;11.32;100.00
60307;BME280;46155;52.364;6.580;2023-02-17T15:21:39;101476.75;;;11.36;100.00
60307;BME280;46155;52.364;6.580;2023-02-17T15:24:18;101462.41;;;11.31;100.00
60307;BME280;46155;52.364;6.580;2023-02-17T15:26:44;101457.84;;;11.29;100.00
60307;BME280;46155;52.364;6.580;2023-02-17T15:29:23;101456.91;;;11.28;100.00
60307;BME280;46155;52.364;6.580;2023-02-17T15:31:50;101471.09;;;11.30;100.00
60307;BME280;46155;52.364;6.580;2023-02-17T15:34:18;101478.16;;;11.31;100.00
60307;BME280;46155;52.364;6.580;2023-02-17T15:36:44;101473.13;;;11.34;100.00
60307;BME280;46155;52.364;6.580;2023-02-17T15:39:11;101477.25;;;11.31;100.00
60307;BME280;46155;52.364;6.580;2023-02-17T15:41:38;101470.88;;;11.27;100.00
60307;BME280;46155;52.364;6.580;2023-02-17T15:44:04;101488.44;;;11.28;100.00
60307;BME280;46155;52.364;6.580;2023-02-17T15:46:32;101493.50;;;11.25;100.00
60307;BME280;46155;52.364;6.580;2023-02-17T15:48:58;101485.03;;;11.29;100.00
60307;BME280;46155;52.364;6.580;2023-02-17T15:51:23;101492.13;;;11.30;100.00
60307;BME280;46155;52.364;6.580;2023-02-17T15:53:49;101502.63;;;11.30;100.00
60307;BME280;46155;52.364;6.580;2023-02-17T15:56:19;101499.19;;;11.31;100.00
60307;BME280;46155;52.364;6.580;2023-02-17T15:58:46;101502.25;;;11.37;100.00
60307;BME280;46155;52.364;6.580;2023-02-17T16:01:26;101518.81;;;11.36;100.00
60307;BME280;46155;52.364;6.580;2023-02-17T16:03:53;101514.13;;;11.32;100.00
60307;BME280;46155;52.364;6.580;2023-02-17T16:06:19;101532.34;;;11.29;100.00
60307;BME280;46155;52.364;6.580;2023-02-17T16:08:44;101523.84;;;11.33;100.00
60307;BME280;46155;52.364;6.580;2023-02-17T16:11:13;101522.03;;;11.32;100.00
60307;BME280;46155;52.364;6.580;2023-02-17T16:13:40;101527.28;;;11.32;100.00
60307;BME280;46155;52.364;6.580;2023-02-17T16:18:43;101533.97;;;11.27;100.00
60307;BME280;46155;52.364;6.580;2023-02-17T16:21:12;101553.81;;;11.35;100.00
60307;BME280;46155;52.364;6.580;2023-02-17T16:23:38;101552.78;;;11.33;100.00
60307;BME280;46155;52.364;6.580;2023-02-17T16:26:05;101559.88;;;11.34;100.00
60307;BME280;46155;52.364;6.580;2023-02-17T16:28:37;101552.47;;;11.29;100.00
60307;BME280;46155;52.364;6.580;2023-02-17T16:31:02;101540.44;;;11.32;100.00
60307;BME280;46155;52.364;6.580;2023-02-17T16:33:27;101549.47;;;11.36;100.00
60307;BME280;46155;52.364;6.580;2023-02-17T16:35:53;101562.69;;;11.37;100.00
60307;BME280;46155;52.364;6.580;2023-02-17T16:38:21;101564.44;;;11.37;100.00
60307;BME280;46155;52.364;6.580;2023-02-17T16:40:50;101562.50;;;11.34;100.00
60307;BME280;46155;52.364;6.580;2023-02-17T16:43:18;101574.13;;;11.38;100.00
60307;BME280;46155;52.364;6.580;2023-02-17T16:45:51;101580.63;;;11.43;100.00
60307;BME280;46155;52.364;6.580;2023-02-17T16:48:20;101573.22;;;11.37;100.00
60307;BME280;46155;52.364;6.580;2023-02-17T16:50:45;101598.50;;;11.35;100.00
60307;BME280;46155;52.364;6.580;2023-02-17T16:53:12;101599.09;;;11.31;100.00
60307;BME280;46155;52.364;6.580;2023-02-17T16:55:38;101610.78;;;11.23;100.00
60307;BME280;46155;52.364;6.580;2023-02-17T16:58:12;101612.94;;;11.17;100.00
60307;BME280;46155;52.364;6.580;2023-02-17T17:00:38;101627.50;;;11.12;100.00
60307;BME280;46155;52.364;6.580;2023-02-17T17:03:03;101629.56;;;11.04;100.00
60307;BME280;46155;52.364;6.580;2023-02-17T17:05:29;101629.81;;;10.95;100.00
60307;BME280;46155;52.364;6.580;2023-02-17T17:07:55;101639.41;;;10.95;100.00
60307;BME280;46155;52.364;6.580;2023-02-17T17:10:24;101641.47;;;10.87;100.00
60307;BME280;46155;52.364;6.580;2023-02-17T17:12:50;101642.38;;;10.76;100.00
60307;BME280;46155;52.364;6.580;2023-02-17T17:15:16;101651.88;;;10.74;100.00
60307;BME280;46155;52.364;6.580;2023-02-17T17:17:47;101650.38;;;10.77;100.00
60307;BME280;46155;52.364;6.580;2023-02-17T17:20:20;101668.75;;;10.77;100.00
60307;BME280;46155;52.364;6.580;2023-02-17T17:22:48;101672.09;;;10.87;100.00
60307;BME280;46155;52.364;6.580;2023-02-17T17:25:14;101680.44;;;10.81;100.00
60307;BME280;46155;52.364;6.580;2023-02-17T17:27:40;101681.22;;;10.80;100.00
60307;BME280;46155;52.364;6.580;2023-02-17T17:30:08;101693.22;;;10.88;100.00
60307;BME280;46155;52.364;6.580;2023-02-17T17:32:33;101703.72;;;10.88;100.00
60307;BME280;46155;52.364;6.580;2023-02-17T17:34:59;101700.31;;;10.89;100.00
60307;BME280;46155;52.364;6.580;2023-02-17T17:37:24;101703.06;;;10.79;100.00
60307;BME280;46155;52.364;6.580;2023-02-17T17:39:49;101719.91;;;10.94;100.00
60307;BME280;46155;52.364;6.580;2023-02-17T17:42:15;101728.72;;;10.83;100.00
60307;BME280;46155;52.364;6.580;2023-02-17T17:44:41;101736.03;;;10.87;100.00
60307;BME280;46155;52.364;6.580;2023-02-17T17:47:13;101731.72;;;10.88;100.00
60307;BME280;46155;52.364;6.580;2023-02-17T17:49:38;101739.13;;;10.81;100.00
60307;BME280;46155;52.364;6.580;2023-02-17T17:52:04;101748.59;;;10.91;100.00
60307;BME280;46155;52.364;6.580;2023-02-17T17:54:29;101757.06;;;10.87;100.00
60307;BME280;46155;52.364;6.580;2023-02-17T17:56:55;101747.72;;;10.79;100.00
60307;BME280;46155;52.364;6.580;2023-02-17T17:59:20;101759.78;;;10.77;100.00